Time;durP1;ratioP1;P1;durP2;ratioP2;P2;SDS_P1;SDS_P2;PMS_P1;PMS_P2;Temp;Humidity;BMP_temperature;BMP_pressure;BME280_temperature;BME280_humidity;BME280_pressure;Samples;Min_cycle;Max_cycle;Signal;HPM_P1;HPM_P2
2023/04/26 00:02:01;;;;;;;1.05;0.93;;;;;;;;;;5037411;28;20205;-62
2023/04/26 00:04:29;;;;;;;0.90;0.90;;;;;;;;;;5037281;28;20206;-62
2023/04/26 00:06:57;;;;;;;1.08;0.98;;;;;;;;;;5036825;28;20601;-62
2023/04/26 00:09:25;;;;;;;0.93;0.90;;;;;;;;;;5037330;28;20479;-62
2023/04/26 00:11:54;;;;;;;1.10;1.00;;;;;;;;;;5036990;28;20581;-62
2023/04/26 00:14:21;;;;;;;1.08;0.98;;;;;;;;;;5037461;28;20229;-62
2023/04/26 00:16:49;;;;;;;0.82;0.82;;;;;;;;;;5036950;28;20206;-62
2023/04/26 00:19:17;;;;;;;0.98;0.88;;;;;;;;;;5037106;28;20209;-62
2023/04/26 00:21:44;;;;;;;1.00;0.90;;;;;;;;;;5037219;28;20236;-62
2023/04/26 00:24:12;;;;;;;1.20;1.10;;;;;;;;;;5036839;28;20539;-62
2023/04/26 00:26:39;;;;;;;0.80;0.80;;;;;;;;;;5036771;28;20202;-62
2023/04/26 00:29:08;;;;;;;0.80;0.80;;;;;;;;;;5037056;28;20605;-62
2023/04/26 00:31:36;;;;;;;0.85;0.85;;;;;;;;;;5037147;28;20205;-62
2023/04/26 00:34:03;;;;;;;0.88;0.85;;;;;;;;;;5037213;28;20506;-62
2023/04/26 00:36:31;;;;;;;1.45;1.10;;;;;;;;;;5037315;28;20213;-62
2023/04/26 00:38:59;;;;;;;1.40;1.02;;;;;;;;;;5037357;28;20275;-62
2023/04/26 00:41:26;;;;;;;0.90;0.90;;;;;;;;;;5036969;28;20220;-62
2023/04/26 00:43:54;;;;;;;0.95;0.85;;;;;;;;;;5037104;28;20570;-62
2023/04/26 00:46:23;;;;;;;1.00;1.00;;;;;;;;;;5037054;28;20217;-62
2023/04/26 00:48:51;;;;;;;0.85;0.80;;;;;;;;;;5037225;28;20214;-62
2023/04/26 00:51:19;;;;;;;1.00;1.00;;;;;;;;;;5036743;28;20213;-62
2023/04/26 00:53:47;;;;;;;1.15;1.00;;;;;;;;;;5036762;28;20625;-62
2023/04/26 00:56:17;;;;;;;1.00;0.90;;;;;;;;;;5036933;28;20220;-62
2023/04/26 00:58:45;;;;;;;0.90;0.90;;;;;;;;;;5037955;28;20263;-62
2023/04/26 01:01:13;;;;;;;0.93;0.90;;;;;;;;;;5040869;28;20317;-62
2023/04/26 01:03:43;;;;;;;0.93;0.88;;;;;;;;;;5040733;28;20229;-62
2023/04/26 01:06:10;;;;;;;1.27;1.17;;;;;;;;;;5040690;28;20205;-62
2023/04/26 01:08:38;;;;;;;1.13;0.95;;;;;;;;;;5040376;28;20283;-62
2023/04/26 01:11:06;;;;;;;0.98;0.98;;;;;;;;;;5040644;28;20205;-62
2023/04/26 01:13:33;;;;;;;1.13;0.90;;;;;;;;;;5040368;28;20667;-62
2023/04/26 01:16:01;;;;;;;0.85;0.85;;;;;;;;;;5040945;28;20287;-62
2023/04/26 01:18:28;;;;;;;1.10;1.00;;;;;;;;;;5040545;28;20271;-62
2023/04/26 01:20:57;;;;;;;1.00;0.90;;;;;;;;;;5040552;28;20206;-62
2023/04/26 01:23:26;;;;;;;0.80;0.80;;;;;;;;;;5040765;28;20206;-62
2023/04/26 01:25:55;;;;;;;0.82;0.82;;;;;;;;;;5040557;28;20300;-62
2023/04/26 01:28:23;;;;;;;1.10;1.00;;;;;;;;;;5040173;28;20209;-62
2023/04/26 01:30:50;;;;;;;1.00;0.90;;;;;;;;;;5040380;28;20213;-62
2023/04/26 01:33:18;;;;;;;0.70;0.70;;;;;;;;;;5039396;28;20240;-62
2023/04/26 01:35:45;;;;;;;0.75;0.70;;;;;;;;;;5040156;28;20607;-62
2023/04/26 01:38:13;;;;;;;1.10;1.00;;;;;;;;;;5039953;28;20521;-62
2023/04/26 01:40:44;;;;;;;0.90;0.90;;;;;;;;;;5040317;28;20205;-62
2023/04/26 01:43:14;;;;;;;0.77;0.77;;;;;;;;;;5039909;28;20201;-62
2023/04/26 01:45:41;;;;;;;1.20;0.80;;;;;;;;;;5039865;28;20216;-62
2023/04/26 01:48:09;;;;;;;0.70;0.70;;;;;;;;;;5040069;28;20213;-62
2023/04/26 01:50:37;;;;;;;0.80;0.80;;;;;;;;;;5039887;28;20453;-62
2023/04/26 01:53:04;;;;;;;0.98;0.98;;;;;;;;;;5039994;28;20651;-62
2023/04/26 01:55:32;;;;;;;0.90;0.90;;;;;;;;;;5039790;28;20217;-62
2023/04/26 01:58:01;;;;;;;0.90;0.90;;;;;;;;;;5039862;28;20291;-62
2023/04/26 02:00:29;;;;;;;0.95;0.85;;;;;;;;;;5039622;28;20244;-62
2023/04/26 02:02:57;;;;;;;1.27;0.80;;;;;;;;;;5039523;28;20214;-62
2023/04/26 02:05:24;;;;;;;1.00;1.00;;;;;;;;;;5039513;28;20206;-62
2023/04/26 02:07:52;;;;;;;0.80;0.80;;;;;;;;;;5039327;28;20271;-62
2023/04/26 02:10:19;;;;;;;0.80;0.80;;;;;;;;;;5039047;28;20205;-62
2023/04/26 02:12:47;;;;;;;0.95;0.75;;;;;;;;;;5039038;28;20254;-62
2023/04/26 02:15:16;;;;;;;0.90;0.90;;;;;;;;;;5039090;28;20287;-62
2023/04/26 02:17:43;;;;;;;1.20;1.10;;;;;;;;;;5039190;28;20209;-62
2023/04/26 02:20:11;;;;;;;0.70;0.70;;;;;;;;;;5039524;28;20513;-62
2023/04/26 02:22:39;;;;;;;0.75;0.75;;;;;;;;;;5039597;28;20582;-62
2023/04/26 02:25:07;;;;;;;1.30;0.70;;;;;;;;;;5039249;28;20272;-62
2023/04/26 02:27:34;;;;;;;0.88;0.70;;;;;;;;;;5038897;28;20206;-62
2023/04/26 02:30:02;;;;;;;0.88;0.88;;;;;;;;;;5039037;28;20206;-62
2023/04/26 02:32:31;;;;;;;0.80;0.80;;;;;;;;;;5038998;28;20300;-62
2023/04/26 02:34:58;;;;;;;0.73;0.73;;;;;;;;;;5038986;28;20691;-62
2023/04/26 02:37:26;;;;;;;0.90;0.90;;;;;;;;;;5039476;28;20542;-62
2023/04/26 02:39:54;;;;;;;0.90;0.75;;;;;;;;;;5039145;28;20212;-62
2023/04/26 02:42:21;;;;;;;1.00;0.90;;;;;;;;;;5038891;28;20205;-62
2023/04/26 02:44:49;;;;;;;0.80;0.80;;;;;;;;;;5039184;28;20209;-62
2023/04/26 02:47:16;;;;;;;0.93;0.90;;;;;;;;;;5038453;28;20271;-62
2023/04/26 02:49:45;;;;;;;1.02;0.90;;;;;;;;;;5038621;28;20245;-62
2023/04/26 02:52:13;;;;;;;0.68;0.68;;;;;;;;;;5038764;28;20205;-62
2023/04/26 02:54:40;;;;;;;0.82;0.70;;;;;;;;;;5038404;28;20229;-62
2023/04/26 02:57:08;;;;;;;0.93;0.70;;;;;;;;;;5038461;28;20213;-62
2023/04/26 02:59:36;;;;;;;0.88;0.88;;;;;;;;;;5038058;28;20253;-62
2023/04/26 03:02:03;;;;;;;0.63;0.63;;;;;;;;;;5038788;28;20216;-62
2023/04/26 03:04:33;;;;;;;0.85;0.85;;;;;;;;;;5038362;28;20217;-62
2023/04/26 03:07:02;;;;;;;0.75;0.70;;;;;;;;;;5038120;28;20241;-62
2023/04/26 03:09:29;;;;;;;0.80;0.80;;;;;;;;;;5038461;28;20214;-62
2023/04/26 03:11:57;;;;;;;0.60;0.60;;;;;;;;;;5038220;28;20206;-62
2023/04/26 03:14:25;;;;;;;0.80;0.80;;;;;;;;;;5038519;28;20303;-62
2023/04/26 03:16:53;;;;;;;0.70;0.70;;;;;;;;;;5037988;28;20237;-62
2023/04/26 03:19:21;;;;;;;0.80;0.70;;;;;;;;;;5037864;28;20205;-62
2023/04/26 03:21:48;;;;;;;0.70;0.70;;;;;;;;;;5037292;28;20206;-62
2023/04/26 03:24:17;;;;;;;0.68;0.68;;;;;;;;;;5038219;28;20593;-62
2023/04/26 03:26:45;;;;;;;0.60;0.60;;;;;;;;;;5037776;28;20217;-62
2023/04/26 03:29:13;;;;;;;0.90;0.90;;;;;;;;;;5037980;28;20621;-62
2023/04/26 03:31:41;;;;;;;0.70;0.70;;;;;;;;;;5037997;28;20205;-62
2023/04/26 03:34:08;;;;;;;0.90;0.70;;;;;;;;;;5037476;28;20236;-62
2023/04/26 03:36:36;;;;;;;0.80;0.80;;;;;;;;;;5037674;28;20198;-62
2023/04/26 03:39:04;;;;;;;0.85;0.80;;;;;;;;;;5037665;28;20214;-62
2023/04/26 03:41:35;;;;;;;0.70;0.70;;;;;;;;;;5037661;28;20248;-62
2023/04/26 03:44:03;;;;;;;0.80;0.80;;;;;;;;;;5037400;28;20222;-62
2023/04/26 03:46:31;;;;;;;1.02;0.80;;;;;;;;;;5037612;28;20573;-62
2023/04/26 03:48:58;;;;;;;1.08;0.98;;;;;;;;;;5037464;28;20205;-62
2023/04/26 03:51:27;;;;;;;0.82;0.70;;;;;;;;;;5037673;28;20213;-62
2023/04/26 03:53:54;;;;;;;0.70;0.70;;;;;;;;;;5036995;28;20256;-64
2023/04/26 03:56:22;;;;;;;0.85;0.85;;;;;;;;;;5037403;28;20232;-63
2023/04/26 03:58:51;;;;;;;0.70;0.70;;;;;;;;;;5036994;28;20202;-63
2023/04/26 04:01:19;;;;;;;0.82;0.80;;;;;;;;;;5037277;28;20205;-63
2023/04/26 04:03:46;;;;;;;1.20;0.77;;;;;;;;;;5036926;28;20217;-63
2023/04/26 04:06:14;;;;;;;0.80;0.80;;;;;;;;;;5036705;28;20212;-63
2023/04/26 04:08:42;;;;;;;1.02;0.88;;;;;;;;;;5036423;28;20201;-63
2023/04/26 04:11:09;;;;;;;0.68;0.68;;;;;;;;;;5036881;28;20217;-63
2023/04/26 04:13:37;;;;;;;0.82;0.70;;;;;;;;;;5036992;28;20205;-63
2023/04/26 04:16:08;;;;;;;0.68;0.68;;;;;;;;;;5037377;28;20500;-63
2023/04/26 04:18:36;;;;;;;0.70;0.70;;;;;;;;;;5036548;28;20484;-63
2023/04/26 04:21:04;;;;;;;0.80;0.70;;;;;;;;;;5036827;28;20213;-63
2023/04/26 04:23:31;;;;;;;0.70;0.70;;;;;;;;;;5037109;28;20228;-63
2023/04/26 04:25:59;;;;;;;1.52;0.77;;;;;;;;;;5036046;28;20566;-63
2023/04/26 04:28:26;;;;;;;0.70;0.70;;;;;;;;;;5036082;28;20359;-63
2023/04/26 04:30:55;;;;;;;1.48;0.70;;;;;;;;;;5036140;28;20268;-63
2023/04/26 04:33:27;;;;;;;0.82;0.60;;;;;;;;;;5038038;28;20218;-63
2023/04/26 04:35:55;;;;;;;0.80;0.70;;;;;;;;;;5040047;28;20227;-63
2023/04/26 04:38:23;;;;;;;0.70;0.70;;;;;;;;;;5040085;28;20562;-63
2023/04/26 04:40:58;;;;;;;1.02;0.90;;;;;;;;;;5038809;28;20304;-63
2023/04/26 04:43:26;;;;;;;0.80;0.80;;;;;;;;;;5039973;28;20205;-63
2023/04/26 04:45:54;;;;;;;0.98;0.77;;;;;;;;;;5039183;28;20198;-63
2023/04/26 04:48:22;;;;;;;0.75;0.70;;;;;;;;;;5039187;28;20274;-63
2023/04/26 04:50:51;;;;;;;0.70;0.70;;;;;;;;;;5038968;28;20236;-63
2023/04/26 04:53:19;;;;;;;0.77;0.68;;;;;;;;;;5039578;28;20198;-63
2023/04/26 04:55:48;;;;;;;0.60;0.60;;;;;;;;;;5038252;28;20260;-63
2023/04/26 04:58:15;;;;;;;0.65;0.60;;;;;;;;;;5038417;28;20217;-63
2023/04/26 05:00:44;;;;;;;2.03;0.80;;;;;;;;;;5037960;28;20247;-63
2023/04/26 05:03:12;;;;;;;0.70;0.70;;;;;;;;;;5038444;28;20201;-62
2023/04/26 05:05:39;;;;;;;1.42;0.70;;;;;;;;;;5038283;28;20609;-62
2023/04/26 05:08:08;;;;;;;1.10;0.70;;;;;;;;;;5037654;28;20205;-62
2023/04/26 05:10:36;;;;;;;1.42;0.68;;;;;;;;;;5037909;28;20206;-62
2023/04/26 05:13:04;;;;;;;0.88;0.75;;;;;;;;;;5037830;28;20273;-62
2023/04/26 05:15:31;;;;;;;0.70;0.70;;;;;;;;;;5037607;28;20248;-62
2023/04/26 05:17:59;;;;;;;0.57;0.57;;;;;;;;;;5037227;28;20589;-62
2023/04/26 05:20:28;;;;;;;0.80;0.70;;;;;;;;;;5036776;28;20237;-62
2023/04/26 05:22:55;;;;;;;0.70;0.70;;;;;;;;;;5037193;28;20205;-62
2023/04/26 05:25:24;;;;;;;1.20;0.70;;;;;;;;;;5036598;28;20205;-63
2023/04/26 05:27:52;;;;;;;1.17;0.82;;;;;;;;;;5037340;28;20259;-63
2023/04/26 05:30:20;;;;;;;0.70;0.70;;;;;;;;;;5038203;28;20228;-63
2023/04/26 05:32:49;;;;;;;0.80;0.80;;;;;;;;;;5036245;28;20263;-63
2023/04/26 05:35:17;;;;;;;0.85;0.80;;;;;;;;;;5035894;28;20236;-63
2023/04/26 05:37:44;;;;;;;1.30;0.95;;;;;;;;;;5036616;28;20256;-63
2023/04/26 05:40:12;;;;;;;0.90;0.75;;;;;;;;;;5036324;28;20593;-63
2023/04/26 05:42:41;;;;;;;0.98;0.88;;;;;;;;;;5036888;28;20214;-63
2023/04/26 05:45:09;;;;;;;0.95;0.85;;;;;;;;;;5036155;28;20793;-63
2023/04/26 05:47:37;;;;;;;0.75;0.75;;;;;;;;;;5036816;28;20305;-63
2023/04/26 05:50:05;;;;;;;0.90;0.80;;;;;;;;;;5036160;28;20298;-63
2023/04/26 05:52:33;;;;;;;0.70;0.70;;;;;;;;;;5036884;28;20205;-63
2023/04/26 05:55:02;;;;;;;1.25;0.73;;;;;;;;;;5037461;28;20229;-63
2023/04/26 05:57:30;;;;;;;1.58;0.88;;;;;;;;;;5036916;28;20206;-63
2023/04/26 05:59:59;;;;;;;1.38;0.82;;;;;;;;;;5037277;28;20241;-63
2023/04/26 06:02:27;;;;;;;1.52;0.90;;;;;;;;;;5036692;28;20275;-62
2023/04/26 06:04:54;;;;;;;1.48;0.80;;;;;;;;;;5036928;28;20287;-62
2023/04/26 06:07:22;;;;;;;1.80;0.70;;;;;;;;;;5037122;28;20206;-62
2023/04/26 06:09:50;;;;;;;1.10;0.70;;;;;;;;;;5037101;28;20205;-63
2023/04/26 06:12:17;;;;;;;2.47;0.82;;;;;;;;;;5037242;28;20213;-63
2023/04/26 06:14:45;;;;;;;1.02;0.82;;;;;;;;;;5037336;28;20229;-63
2023/04/26 06:17:14;;;;;;;1.10;0.80;;;;;;;;;;5036857;28;20299;-63
2023/04/26 06:19:41;;;;;;;1.08;0.90;;;;;;;;;;5036707;28;20332;-63
2023/04/26 06:22:09;;;;;;;0.80;0.80;;;;;;;;;;5036635;28;20213;-63
2023/04/26 06:24:37;;;;;;;0.77;0.70;;;;;;;;;;5036940;28;20297;-63
2023/04/26 06:27:04;;;;;;;0.80;0.80;;;;;;;;;;5036783;28;20213;-63
2023/04/26 06:29:33;;;;;;;2.30;0.80;;;;;;;;;;5036676;28;20574;-63
2023/04/26 06:32:01;;;;;;;1.10;0.80;;;;;;;;;;5036839;28;20640;-63
2023/04/26 06:34:30;;;;;;;1.00;0.80;;;;;;;;;;5036128;28;20632;-63
2023/04/26 06:36:58;;;;;;;1.10;0.70;;;;;;;;;;5036954;28;20212;-63
2023/04/26 06:39:26;;;;;;;1.80;0.70;;;;;;;;;;5037113;28;20621;-63
2023/04/26 06:41:53;;;;;;;1.00;0.80;;;;;;;;;;5036690;28;20205;-63
2023/04/26 06:44:21;;;;;;;2.00;1.00;;;;;;;;;;5036106;28;20210;-63
2023/04/26 06:46:49;;;;;;;0.70;0.70;;;;;;;;;;5036556;28;20251;-63
2023/04/26 06:49:16;;;;;;;0.98;0.68;;;;;;;;;;5035745;28;20508;-63
2023/04/26 06:51:45;;;;;;;1.10;0.80;;;;;;;;;;5036505;28;20197;-63
2023/04/26 06:54:13;;;;;;;1.73;1.02;;;;;;;;;;5036028;28;20211;-63
2023/04/26 06:56:40;;;;;;;0.88;0.77;;;;;;;;;;5035259;28;20702;-63
2023/04/26 06:59:08;;;;;;;1.67;0.75;;;;;;;;;;5036403;28;20323;-63
2023/04/26 07:01:36;;;;;;;0.95;0.85;;;;;;;;;;5035189;28;20245;-63
2023/04/26 07:04:06;;;;;;;0.80;0.80;;;;;;;;;;5036292;28;20206;-63
2023/04/26 07:06:34;;;;;;;1.10;1.00;;;;;;;;;;5037046;28;20202;-63
2023/04/26 07:09:03;;;;;;;1.00;0.90;;;;;;;;;;5036701;28;20205;-63
2023/04/26 07:11:31;;;;;;;1.42;0.85;;;;;;;;;;5035618;28;20205;-63
2023/04/26 07:13:58;;;;;;;1.10;0.80;;;;;;;;;;5035820;28;20275;-63
2023/04/26 07:16:27;;;;;;;1.10;1.00;;;;;;;;;;5035855;28;20237;-63
2023/04/26 07:18:57;;;;;;;1.30;1.00;;;;;;;;;;5036586;28;20510;-63
2023/04/26 07:21:25;;;;;;;1.08;0.90;;;;;;;;;;5036144;28;20198;-63
2023/04/26 07:23:54;;;;;;;1.08;0.90;;;;;;;;;;5035907;28;20589;-63
2023/04/26 07:26:23;;;;;;;1.10;0.80;;;;;;;;;;5035597;28;20570;-63
2023/04/26 07:28:51;;;;;;;1.27;1.00;;;;;;;;;;5035675;28;20212;-63
2023/04/26 07:31:19;;;;;;;0.80;0.73;;;;;;;;;;5036306;28;20291;-63
2023/04/26 07:33:47;;;;;;;1.35;1.00;;;;;;;;;;5035430;28;20597;-63
2023/04/26 07:36:14;;;;;;;1.40;1.02;;;;;;;;;;5036331;28;20917;-63
2023/04/26 07:38:42;;;;;;;1.23;1.00;;;;;;;;;;5035867;28;20205;-63
2023/04/26 07:41:11;;;;;;;0.90;0.80;;;;;;;;;;5034655;28;20689;-63
2023/04/26 07:43:40;;;;;;;1.27;0.98;;;;;;;;;;5034676;28;20321;-63
2023/04/26 07:46:08;;;;;;;1.20;1.00;;;;;;;;;;5035258;28;20614;-63
2023/04/26 07:48:35;;;;;;;1.08;0.95;;;;;;;;;;5035468;28;20205;-63
2023/04/26 07:51:08;;;;;;;1.25;0.80;;;;;;;;;;5035309;28;20236;-63
2023/04/26 07:53:36;;;;;;;1.00;0.80;;;;;;;;;;5035370;28;20209;-63
2023/04/26 07:56:05;;;;;;;1.00;0.90;;;;;;;;;;5035683;28;20242;-63
2023/04/26 07:58:32;;;;;;;1.08;0.77;;;;;;;;;;5034860;28;20197;-63
2023/04/26 08:01:02;;;;;;;1.10;0.95;;;;;;;;;;5035287;28;20329;-63
2023/04/26 08:03:29;;;;;;;1.30;1.00;;;;;;;;;;5035318;28;20539;-63
2023/04/26 08:05:57;;;;;;;1.63;1.05;;;;;;;;;;5035356;28;20582;-63
2023/04/26 08:08:26;;;;;;;1.05;0.95;;;;;;;;;;5034765;28;20256;-63
2023/04/26 08:10:54;;;;;;;1.77;1.23;;;;;;;;;;5034766;28;20205;-63
2023/04/26 08:13:22;;;;;;;1.10;0.88;;;;;;;;;;5034864;28;20288;-63
2023/04/26 08:15:49;;;;;;;1.05;0.90;;;;;;;;;;5035025;28;20256;-63
2023/04/26 08:18:18;;;;;;;0.70;0.70;;;;;;;;;;5035755;28;20216;-63
2023/04/26 08:20:46;;;;;;;1.30;1.00;;;;;;;;;;5034818;28;20216;-63
2023/04/26 08:23:13;;;;;;;1.23;1.00;;;;;;;;;;5034728;28;20260;-63
2023/04/26 08:25:41;;;;;;;0.98;0.80;;;;;;;;;;5035198;28;20204;-63
2023/04/26 08:28:08;;;;;;;0.85;0.80;;;;;;;;;;5035383;28;20268;-63
2023/04/26 08:30:36;;;;;;;1.50;0.98;;;;;;;;;;5034845;28;20205;-63
2023/04/26 08:33:04;;;;;;;1.00;0.90;;;;;;;;;;5034987;28;20213;-63
2023/04/26 08:35:33;;;;;;;1.90;0.93;;;;;;;;;;5034475;28;20268;-63
2023/04/26 08:38:01;;;;;;;0.93;0.82;;;;;;;;;;5034594;28;20208;-63
2023/04/26 08:40:28;;;;;;;1.08;0.80;;;;;;;;;;5034987;28;20197;-63
2023/04/26 08:42:56;;;;;;;1.00;0.90;;;;;;;;;;5035040;28;20214;-63
2023/04/26 08:45:23;;;;;;;1.20;1.00;;;;;;;;;;5034661;28;20193;-63
2023/04/26 08:47:51;;;;;;;0.95;0.90;;;;;;;;;;5034583;28;20197;-63
2023/04/26 08:50:20;;;;;;;1.00;0.75;;;;;;;;;;5035293;28;20213;-63
2023/04/26 08:52:50;;;;;;;0.90;0.80;;;;;;;;;;5034599;28;20205;-63
2023/04/26 08:55:18;;;;;;;1.15;1.05;;;;;;;;;;5034060;28;20232;-63
2023/04/26 08:57:47;;;;;;;1.45;0.98;;;;;;;;;;5033979;28;20427;-63
2023/04/26 09:00:15;;;;;;;1.02;0.93;;;;;;;;;;5034124;28;20248;-63
2023/04/26 09:02:43;;;;;;;1.25;0.82;;;;;;;;;;5034959;28;20267;-63
2023/04/26 09:05:11;;;;;;;0.90;0.80;;;;;;;;;;5034190;28;20214;-63
2023/04/26 09:07:42;;;;;;;1.42;0.80;;;;;;;;;;5034004;28;20252;-63
2023/04/26 09:10:12;;;;;;;0.80;0.80;;;;;;;;;;5033111;28;20574;-63
2023/04/26 09:12:40;;;;;;;0.98;0.88;;;;;;;;;;5034592;28;20213;-63
2023/04/26 09:15:08;;;;;;;1.10;1.00;;;;;;;;;;5034297;28;20214;-63
2023/04/26 09:17:36;;;;;;;1.00;0.90;;;;;;;;;;5034367;28;20264;-63
2023/04/26 09:20:18;;;;;;;1.42;0.93;;;;;;;;;;5036326;28;20205;-63
2023/04/26 09:22:46;;;;;;;1.17;1.00;;;;;;;;;;5037662;28;20624;-63
2023/04/26 09:25:17;;;;;;;1.23;0.82;;;;;;;;;;5037593;28;20236;-63
2023/04/26 09:27:45;;;;;;;1.25;0.90;;;;;;;;;;5037671;28;20300;-63
2023/04/26 09:30:14;;;;;;;0.90;0.80;;;;;;;;;;5036116;28;20490;-63
2023/04/26 09:32:52;;;;;;;1.10;1.00;;;;;;;;;;5033382;28;20207;-63
2023/04/26 09:35:30;;;;;;;0.90;0.80;;;;;;;;;;5036783;28;20225;-63
2023/04/26 09:37:59;;;;;;;1.00;0.80;;;;;;;;;;5037258;28;20209;-63
2023/04/26 09:40:29;;;;;;;1.20;1.00;;;;;;;;;;5036688;28;20594;-63
2023/04/26 09:43:00;;;;;;;1.40;0.98;;;;;;;;;;5036961;28;20656;-63
2023/04/26 09:45:28;;;;;;;1.23;0.80;;;;;;;;;;5036919;28;20272;-63
2023/04/26 09:47:56;;;;;;;1.02;0.90;;;;;;;;;;5036102;28;20202;-63
2023/04/26 09:50:27;;;;;;;1.73;0.90;;;;;;;;;;5035824;28;20202;-63
2023/04/26 09:52:55;;;;;;;1.17;0.90;;;;;;;;;;5036465;28;20268;-63
2023/04/26 09:55:33;;;;;;;1.08;0.80;;;;;;;;;;5036588;28;20232;-63
2023/04/26 09:58:00;;;;;;;0.82;0.80;;;;;;;;;;5035916;28;20206;-63
2023/04/26 10:00:28;;;;;;;0.90;0.70;;;;;;;;;;5036277;28;20625;-63
2023/04/26 10:02:56;;;;;;;0.77;0.77;;;;;;;;;;5036850;28;20205;-63
2023/04/26 10:05:25;;;;;;;1.27;0.65;;;;;;;;;;5035798;28;20221;-63
2023/04/26 10:07:53;;;;;;;0.98;0.88;;;;;;;;;;5036809;28;20236;-63
2023/04/26 10:10:20;;;;;;;0.80;0.80;;;;;;;;;;5036619;28;20605;-63
2023/04/26 10:12:50;;;;;;;1.10;0.90;;;;;;;;;;5036345;28;20205;-63
2023/04/26 10:15:18;;;;;;;1.38;0.90;;;;;;;;;;5036394;28;20604;-63
2023/04/26 10:17:46;;;;;;;1.75;0.73;;;;;;;;;;5036207;28;20263;-63
2023/04/26 10:20:14;;;;;;;1.10;0.80;;;;;;;;;;5035661;28;20212;-63
2023/04/26 10:22:45;;;;;;;1.00;0.80;;;;;;;;;;5035524;28;20260;-63
2023/04/26 10:25:13;;;;;;;1.10;0.80;;;;;;;;;;5036192;28;20284;-63
2023/04/26 10:27:52;;;;;;;0.80;0.80;;;;;;;;;;5035829;28;20201;-63
2023/04/26 10:30:21;;;;;;;1.00;0.73;;;;;;;;;;5036234;28;20279;-63
2023/04/26 10:33:16;;;;;;;1.15;0.70;;;;;;;;;;5036050;28;20205;-63
2023/04/26 10:36:02;;;;;;;1.75;0.90;;;;;;;;;;5035404;28;20523;-63
2023/04/26 10:38:30;;;;;;;1.10;0.95;;;;;;;;;;5034936;28;20274;-63
2023/04/26 10:41:18;;;;;;;1.05;0.80;;;;;;;;;;5034722;28;20734;-63
2023/04/26 10:43:47;;;;;;;1.25;0.88;;;;;;;;;;5033834;28;20218;-63
2023/04/26 10:46:35;;;;;;;1.10;1.00;;;;;;;;;;5034403;28;20267;-63
2023/04/26 10:49:13;;;;;;;1.35;1.00;;;;;;;;;;5034813;28;20613;-63
2023/04/26 10:51:41;;;;;;;0.93;0.68;;;;;;;;;;5034840;28;20205;-63
2023/04/26 10:54:09;;;;;;;1.08;0.73;;;;;;;;;;5035029;28;20213;-63
2023/04/26 10:56:52;;;;;;;1.98;0.95;;;;;;;;;;5033178;28;20771;-63
2023/04/26 10:59:22;;;;;;;1.20;0.85;;;;;;;;;;5034967;28;20271;-63
2023/04/26 11:01:49;;;;;;;0.80;0.70;;;;;;;;;;5035226;28;20205;-63
2023/04/26 11:04:17;;;;;;;0.90;0.70;;;;;;;;;;5034844;28;20300;-63
2023/04/26 11:06:49;;;;;;;0.80;0.70;;;;;;;;;;5034276;28;20209;-63
2023/04/26 11:09:36;;;;;;;0.80;0.70;;;;;;;;;;5033866;28;20751;-63
2023/04/26 11:12:05;;;;;;;0.70;0.70;;;;;;;;;;5034942;28;20204;-63
2023/04/26 11:14:35;;;;;;;0.68;0.60;;;;;;;;;;5034775;28;20655;-63
2023/04/26 11:17:05;;;;;;;0.95;0.80;;;;;;;;;;5034393;28;20333;-63
2023/04/26 11:19:33;;;;;;;1.23;0.68;;;;;;;;;;5033273;28;20558;-63
2023/04/26 11:22:01;;;;;;;1.17;0.70;;;;;;;;;;5033893;28;20228;-63
2023/04/26 11:24:29;;;;;;;0.90;0.80;;;;;;;;;;5034058;28;20205;-63
2023/04/26 11:26:57;;;;;;;1.13;0.80;;;;;;;;;;5034384;28;20260;-63
2023/04/26 11:29:25;;;;;;;1.17;0.75;;;;;;;;;;5034986;28;20292;-63
2023/04/26 11:31:55;;;;;;;1.20;0.77;;;;;;;;;;5034901;28;20197;-63
2023/04/26 11:34:23;;;;;;;0.73;0.63;;;;;;;;;;5035041;28;20197;-63
2023/04/26 11:36:53;;;;;;;0.80;0.68;;;;;;;;;;5034736;28;20320;-63
2023/04/26 11:39:22;;;;;;;1.00;0.80;;;;;;;;;;5033486;28;20227;-63
2023/04/26 11:41:49;;;;;;;0.95;0.60;;;;;;;;;;5033967;28;20248;-63
2023/04/26 11:44:20;;;;;;;0.80;0.70;;;;;;;;;;5034045;28;20581;-63
2023/04/26 11:46:49;;;;;;;0.93;0.80;;;;;;;;;;5034432;28;20237;-63
2023/04/26 11:49:18;;;;;;;1.17;0.50;;;;;;;;;;5033321;28;20213;-63
2023/04/26 11:51:49;;;;;;;0.50;0.50;;;;;;;;;;5033538;28;20213;-63
2023/04/26 11:54:28;;;;;;;0.65;0.65;;;;;;;;;;5034045;28;20557;-63
2023/04/26 11:56:56;;;;;;;1.20;0.90;;;;;;;;;;5033862;28;20229;-63
2023/04/26 11:59:24;;;;;;;0.73;0.60;;;;;;;;;;5033518;28;20340;-63
2023/04/26 12:01:52;;;;;;;1.00;0.70;;;;;;;;;;5033396;28;20213;-63
2023/04/26 12:04:27;;;;;;;0.77;0.77;;;;;;;;;;5033592;28;20232;-63
2023/04/26 12:06:55;;;;;;;0.88;0.73;;;;;;;;;;5034499;28;20197;-63
2023/04/26 12:09:24;;;;;;;0.80;0.60;;;;;;;;;;5034374;28;20213;-63
2023/04/26 12:11:54;;;;;;;0.60;0.60;;;;;;;;;;5034119;28;20730;-63
2023/04/26 12:14:22;;;;;;;0.70;0.70;;;;;;;;;;5034573;28;20206;-63
2023/04/26 12:16:50;;;;;;;0.57;0.57;;;;;;;;;;5032551;28;20233;-63
2023/04/26 12:19:17;;;;;;;0.70;0.70;;;;;;;;;;5033787;28;20205;-63
2023/04/26 12:21:49;;;;;;;0.80;0.73;;;;;;;;;;5034024;28;20267;-63
2023/04/26 12:24:26;;;;;;;0.70;0.63;;;;;;;;;;5033405;28;20354;-63
2023/04/26 12:26:54;;;;;;;0.70;0.60;;;;;;;;;;5034123;28;20208;-63
2023/04/26 12:29:22;;;;;;;0.63;0.50;;;;;;;;;;5034304;28;20210;-63
2023/04/26 12:31:49;;;;;;;1.00;0.68;;;;;;;;;;5033778;28;20218;-63
2023/04/26 12:34:17;;;;;;;0.73;0.70;;;;;;;;;;5032737;28;20206;-63
2023/04/26 12:36:46;;;;;;;1.10;0.80;;;;;;;;;;5033621;28;20328;-63
2023/04/26 12:39:14;;;;;;;1.00;0.75;;;;;;;;;;5034264;28;20206;-63
2023/04/26 12:41:42;;;;;;;0.60;0.60;;;;;;;;;;5033493;28;20236;-63
2023/04/26 12:44:10;;;;;;;0.55;0.55;;;;;;;;;;5033353;28;20202;-63
2023/04/26 12:46:37;;;;;;;0.70;0.70;;;;;;;;;;5032942;28;20209;-63
2023/04/26 12:49:05;;;;;;;0.88;0.70;;;;;;;;;;5033479;28;20267;-63
2023/04/26 12:51:33;;;;;;;0.57;0.57;;;;;;;;;;5032761;28;20206;-63
2023/04/26 12:54:02;;;;;;;0.52;0.52;;;;;;;;;;5034779;28;20207;-63
2023/04/26 12:56:30;;;;;;;0.52;0.52;;;;;;;;;;5038142;28;20232;-63
2023/04/26 12:58:57;;;;;;;0.80;0.57;;;;;;;;;;5037904;28;20205;-63
2023/04/26 13:01:26;;;;;;;0.85;0.60;;;;;;;;;;5038137;28;20267;-63
2023/04/26 13:03:55;;;;;;;0.77;0.57;;;;;;;;;;5037106;28;20213;-63
2023/04/26 13:06:22;;;;;;;0.60;0.60;;;;;;;;;;5037145;28;20318;-63
2023/04/26 13:08:50;;;;;;;0.50;0.50;;;;;;;;;;5037703;28;20206;-63
2023/04/26 13:11:19;;;;;;;0.70;0.60;;;;;;;;;;5037561;28;20213;-63
2023/04/26 13:13:48;;;;;;;0.60;0.60;;;;;;;;;;5037938;28;20217;-63
2023/04/26 13:16:15;;;;;;;0.88;0.68;;;;;;;;;;5036265;28;20644;-63
2023/04/26 13:18:43;;;;;;;0.80;0.60;;;;;;;;;;5037044;28;20596;-63
2023/04/26 13:21:11;;;;;;;0.73;0.60;;;;;;;;;;5036993;28;20206;-63
2023/04/26 13:23:38;;;;;;;0.63;0.63;;;;;;;;;;5036655;28;20593;-63
2023/04/26 13:26:06;;;;;;;1.38;0.70;;;;;;;;;;5037246;28;20216;-63
2023/04/26 13:28:35;;;;;;;0.90;0.70;;;;;;;;;;5037653;28;20205;-63
2023/04/26 13:31:03;;;;;;;0.63;0.57;;;;;;;;;;5035758;28;20509;-63
2023/04/26 13:33:31;;;;;;;1.30;0.70;;;;;;;;;;5036010;28;20292;-63
2023/04/26 13:35:58;;;;;;;1.00;0.60;;;;;;;;;;5036239;28;20198;-63
2023/04/26 13:38:26;;;;;;;0.75;0.70;;;;;;;;;;5036513;28;20233;-63
2023/04/26 13:40:54;;;;;;;0.93;0.68;;;;;;;;;;5036826;28;20206;-63
2023/04/26 13:43:21;;;;;;;0.60;0.50;;;;;;;;;;5037759;28;20307;-63
2023/04/26 13:45:50;;;;;;;0.57;0.57;;;;;;;;;;5037344;28;20667;-63
2023/04/26 13:48:18;;;;;;;0.85;0.50;;;;;;;;;;5035123;28;20228;-63
2023/04/26 13:50:45;;;;;;;0.80;0.70;;;;;;;;;;5035835;28;20461;-63
2023/04/26 13:53:13;;;;;;;0.80;0.73;;;;;;;;;;5036253;28;20213;-63
2023/04/26 13:55:40;;;;;;;1.15;0.70;;;;;;;;;;5035838;28;20297;-63
2023/04/26 13:58:08;;;;;;;0.95;0.60;;;;;;;;;;5034933;28;20328;-63
2023/04/26 14:00:36;;;;;;;0.73;0.70;;;;;;;;;;5035582;28;20276;-63
2023/04/26 14:03:05;;;;;;;2.08;0.75;;;;;;;;;;5036315;28;20213;-63
2023/04/26 14:05:32;;;;;;;0.70;0.70;;;;;;;;;;5035255;28;20205;-63
2023/04/26 14:08:00;;;;;;;0.75;0.70;;;;;;;;;;5035776;28;20598;-63
2023/04/26 14:10:27;;;;;;;1.73;0.70;;;;;;;;;;5036333;28;20210;-63
2023/04/26 14:12:55;;;;;;;1.10;0.80;;;;;;;;;;5035909;28;20212;-63
2023/04/26 14:15:23;;;;;;;1.10;0.90;;;;;;;;;;5035912;28;20216;-63
2023/04/26 14:17:51;;;;;;;0.70;0.70;;;;;;;;;;5036069;28;20233;-63
2023/04/26 14:20:20;;;;;;;0.90;0.73;;;;;;;;;;5035741;28;20209;-63
2023/04/26 14:22:49;;;;;;;0.70;0.70;;;;;;;;;;5036343;28;20236;-63
2023/04/26 14:25:16;;;;;;;0.88;0.80;;;;;;;;;;5037292;28;20297;-63
2023/04/26 14:27:44;;;;;;;0.98;0.80;;;;;;;;;;5036486;28;20210;-63
2023/04/26 14:30:12;;;;;;;0.85;0.70;;;;;;;;;;5036443;28;20210;-63
2023/04/26 14:32:40;;;;;;;1.17;0.90;;;;;;;;;;5036111;28;20208;-63
2023/04/26 14:35:08;;;;;;;0.70;0.70;;;;;;;;;;5036111;28;20206;-63
2023/04/26 14:37:37;;;;;;;0.77;0.70;;;;;;;;;;5035267;28;20225;-63
2023/04/26 14:40:06;;;;;;;0.98;0.80;;;;;;;;;;5035939;28;20585;-63
2023/04/26 14:42:34;;;;;;;0.73;0.73;;;;;;;;;;5036082;28;20216;-63
2023/04/26 14:45:02;;;;;;;1.02;0.70;;;;;;;;;;5036126;28;20209;-63
2023/04/26 14:47:29;;;;;;;1.13;0.70;;;;;;;;;;5036398;28;20506;-63
2023/04/26 14:49:57;;;;;;;0.73;0.70;;;;;;;;;;5034887;28;20570;-63
2023/04/26 14:52:27;;;;;;;0.80;0.73;;;;;;;;;;5035799;28;20225;-63